Time;durP1;ratioP1;P1;durP2;ratioP2;P2;SDS_P1;SDS_P2;PMS_P1;PMS_P2;Temp;Humidity;BMP_temperature;BMP_pressure;BME280_temperature;BME280_humidity;BME280_pressure;Samples;Min_cycle;Max_cycle;Signal;HPM_P1;HPM_P2
2024/03/19 00:00:22;;;;;;;13.02;7.00;;;;;;;;;;5059415;28;20085;-81
2024/03/19 00:03:08;;;;;;;11.25;6.28;;;;;;;;;;5062007;28;20083;-81
2024/03/19 00:05:54;;;;;;;10.38;6.43;;;;;;;;;;5062308;28;20025;-80
2024/03/19 00:08:39;;;;;;;17.88;7.50;;;;;;;;;;5061858;28;20028;-80
2024/03/19 00:11:24;;;;;;;10.95;7.38;;;;;;;;;;5080187;28;20135;-80
2024/03/19 00:14:09;;;;;;;10.00;6.10;;;;;;;;;;5049976;28;20037;-79
2024/03/19 00:16:55;;;;;;;11.35;6.68;;;;;;;;;;5045415;28;20036;-80
2024/03/19 00:19:40;;;;;;;13.27;6.68;;;;;;;;;;5046240;28;20054;-80
2024/03/19 00:22:25;;;;;;;11.50;6.75;;;;;;;;;;5046573;28;20074;-80
2024/03/19 00:25:11;;;;;;;9.95;6.63;;;;;;;;;;5039976;28;20033;-80
2024/03/19 00:27:56;;;;;;;13.63;7.78;;;;;;;;;;5044979;28;20033;-79
2024/03/19 00:30:41;;;;;;;11.98;6.38;;;;;;;;;;5047886;28;20036;-78
2024/03/19 00:33:27;;;;;;;11.13;6.80;;;;;;;;;;5049036;28;20032;-79
2024/03/19 00:36:17;;;;;;;10.02;6.07;;;;;;;;;;5047686;28;20106;-79
2024/03/19 00:39:10;;;;;;;12.93;7.50;;;;;;;;;;5041118;28;20028;-79
2024/03/19 00:41:55;;;;;;;9.43;6.15;;;;;;;;;;5045111;28;20761;-80
2024/03/19 00:44:40;;;;;;;9.82;6.10;;;;;;;;;;5044050;28;20094;-79
2024/03/19 00:47:29;;;;;;;8.65;6.03;;;;;;;;;;5045120;28;20032;-80
2024/03/19 00:50:14;;;;;;;9.77;6.38;;;;;;;;;;5044823;28;20055;-82
2024/03/19 00:53:00;;;;;;;10.85;6.28;;;;;;;;;;5043458;28;20027;-81
2024/03/19 00:55:45;;;;;;;13.05;6.40;;;;;;;;;;5044527;28;20036;-80
2024/03/19 00:58:30;;;;;;;11.50;6.40;;;;;;;;;;5039345;28;20345;-81
2024/03/19 01:01:16;;;;;;;9.88;5.82;;;;;;;;;;5041699;28;20035;-82
2024/03/19 01:04:04;;;;;;;10.80;5.65;;;;;;;;;;5060528;28;20067;-81
2024/03/19 01:06:50;;;;;;;11.00;5.85;;;;;;;;;;5044784;28;20093;-81
2024/03/19 01:09:39;;;;;;;10.45;6.28;;;;;;;;;;5040554;28;20025;-80
2024/03/19 01:12:24;;;;;;;8.95;5.63;;;;;;;;;;5057988;28;20028;-81
2024/03/19 01:15:09;;;;;;;10.35;5.82;;;;;;;;;;5051081;28;20120;-81
2024/03/19 01:17:54;;;;;;;9.10;5.47;;;;;;;;;;5058910;28;20090;-81
2024/03/19 01:20:40;;;;;;;11.20;5.75;;;;;;;;;;5057657;28;20032;-80
2024/03/19 01:23:25;;;;;;;8.43;4.95;;;;;;;;;;5055392;28;20155;-81
2024/03/19 01:26:11;;;;;;;8.80;5.45;;;;;;;;;;5058192;28;20078;-80
2024/03/19 01:28:56;;;;;;;9.57;5.13;;;;;;;;;;5058813;28;20070;-81
2024/03/19 01:31:41;;;;;;;10.98;5.75;;;;;;;;;;5056199;28;20095;-79
2024/03/19 01:34:27;;;;;;;10.25;5.80;;;;;;;;;;5042193;28;20031;-79
2024/03/19 01:37:12;;;;;;;11.40;5.78;;;;;;;;;;5059945;28;20029;-79
2024/03/19 01:39:57;;;;;;;7.93;4.47;;;;;;;;;;5056556;28;20090;-80
2024/03/19 01:42:43;;;;;;;11.10;6.03;;;;;;;;;;5062167;28;20091;-80
2024/03/19 01:45:28;;;;;;;8.05;5.45;;;;;;;;;;5064909;28;20032;-80
2024/03/19 01:48:13;;;;;;;9.48;5.47;;;;;;;;;;5056474;28;20025;-80
2024/03/19 01:50:59;;;;;;;8.95;5.15;;;;;;;;;;5051552;28;20092;-80
2024/03/19 01:53:45;;;;;;;10.82;6.05;;;;;;;;;;5061865;28;20040;-79
2024/03/19 01:56:31;;;;;;;9.07;5.28;;;;;;;;;;5050830;28;20032;-80
2024/03/19 01:59:17;;;;;;;11.30;5.28;;;;;;;;;;5064021;28;20086;-80
2024/03/19 02:02:03;;;;;;;8.15;5.05;;;;;;;;;;5080214;28;20162;-80
2024/03/19 02:04:48;;;;;;;10.75;5.38;;;;;;;;;;5061115;28;20032;-81
2024/03/19 02:07:33;;;;;;;7.13;4.45;;;;;;;;;;5063126;28;20024;-82
2024/03/19 02:10:18;;;;;;;6.78;4.50;;;;;;;;;;5059652;28;20071;-82
2024/03/19 02:13:04;;;;;;;6.90;4.57;;;;;;;;;;5064308;28;20047;-80
2024/03/19 02:15:50;;;;;;;8.90;5.13;;;;;;;;;;5080650;28;20504;-82
2024/03/19 02:18:35;;;;;;;6.93;4.60;;;;;;;;;;5065563;28;20469;-80
2024/03/19 02:21:20;;;;;;;8.35;4.55;;;;;;;;;;5067891;28;20106;-81
2024/03/19 02:24:06;;;;;;;12.02;5.30;;;;;;;;;;5065761;28;20055;-80
2024/03/19 02:26:52;;;;;;;8.10;4.18;;;;;;;;;;5070357;28;20414;-80
2024/03/19 02:29:38;;;;;;;7.88;4.30;;;;;;;;;;5051311;28;20047;-80
2024/03/19 02:32:23;;;;;;;10.55;4.82;;;;;;;;;;5066183;28;20035;-80
2024/03/19 02:35:08;;;;;;;7.63;4.53;;;;;;;;;;5076402;28;20024;-79
2024/03/19 02:37:53;;;;;;;6.75;3.97;;;;;;;;;;5070227;28;20043;-80
2024/03/19 02:40:42;;;;;;;10.05;5.55;;;;;;;;;;5070823;28;20027;-79
2024/03/19 02:43:28;;;;;;;8.73;4.77;;;;;;;;;;5063450;28;20040;-80
2024/03/19 02:46:13;;;;;;;9.30;4.57;;;;;;;;;;5071585;28;20067;-78
2024/03/19 02:48:58;;;;;;;7.45;4.38;;;;;;;;;;5068863;28;20111;-79
2024/03/19 02:51:44;;;;;;;6.10;4.20;;;;;;;;;;5068411;28;20493;-79
2024/03/19 02:54:29;;;;;;;6.93;4.50;;;;;;;;;;5068593;28;20024;-79
2024/03/19 02:57:15;;;;;;;6.90;4.20;;;;;;;;;;5067394;28;20020;-79
2024/03/19 03:00:00;;;;;;;6.50;4.63;;;;;;;;;;5060181;28;20111;-79
2024/03/19 03:02:45;;;;;;;7.72;4.80;;;;;;;;;;5070893;28;20028;-79
2024/03/19 03:05:30;;;;;;;7.72;4.13;;;;;;;;;;5077434;28;20032;-80
2024/03/19 03:08:15;;;;;;;10.32;3.90;;;;;;;;;;5069222;28;20105;-80
2024/03/19 03:11:01;;;;;;;6.97;4.55;;;;;;;;;;5069042;28;20059;-80
2024/03/19 03:13:46;;;;;;;5.85;4.05;;;;;;;;;;5079854;28;20063;-81
2024/03/19 03:16:31;;;;;;;6.95;4.05;;;;;;;;;;5083589;28;20039;-80
2024/03/19 03:19:16;;;;;;;6.15;3.78;;;;;;;;;;5077991;28;20508;-81
2024/03/19 03:22:02;;;;;;;8.73;4.43;;;;;;;;;;5073213;28;20110;-83
2024/03/19 03:24:47;;;;;;;9.85;4.50;;;;;;;;;;5066825;28;20060;-83
2024/03/19 03:27:32;;;;;;;8.05;3.53;;;;;;;;;;5064827;28;20029;-82
2024/03/19 03:30:17;;;;;;;7.15;3.67;;;;;;;;;;5070161;28;20505;-80
2024/03/19 03:33:03;;;;;;;8.18;4.13;;;;;;;;;;5073589;28;20032;-81
2024/03/19 03:35:48;;;;;;;8.70;4.25;;;;;;;;;;5075494;28;20467;-80
2024/03/19 03:38:33;;;;;;;6.20;4.05;;;;;;;;;;5071763;28;20025;-80
2024/03/19 03:41:19;;;;;;;6.22;4.55;;;;;;;;;;5076296;28;20444;-81
2024/03/19 03:44:08;;;;;;;10.63;4.53;;;;;;;;;;5071302;28;20020;-81
2024/03/19 03:46:53;;;;;;;7.75;3.80;;;;;;;;;;5074902;28;20036;-81
2024/03/19 03:49:38;;;;;;;7.32;4.25;;;;;;;;;;5071269;28;20059;-81
2024/03/19 03:52:25;;;;;;;6.70;4.03;;;;;;;;;;5067274;28;20028;-81
2024/03/19 03:55:11;;;;;;;6.00;3.70;;;;;;;;;;5065577;28;20106;-81
2024/03/19 03:57:56;;;;;;;6.35;3.72;;;;;;;;;;5066441;28;20035;-81
2024/03/19 04:00:45;;;;;;;9.50;4.45;;;;;;;;;;5070343;28;20107;-79
2024/03/19 04:03:31;;;;;;;5.30;3.80;;;;;;;;;;5063896;28;20142;-80
2024/03/19 04:06:16;;;;;;;6.65;3.95;;;;;;;;;;5066579;28;20017;-80
2024/03/19 04:09:02;;;;;;;10.48;3.53;;;;;;;;;;5059590;28;20171;-81
2024/03/19 04:11:47;;;;;;;5.88;3.25;;;;;;;;;;5068025;28;20017;-80
2024/03/19 04:14:32;;;;;;;5.80;3.70;;;;;;;;;;5069969;28;20031;-79
2024/03/19 04:17:17;;;;;;;6.45;4.07;;;;;;;;;;5071505;28;20023;-79
2024/03/19 04:20:05;;;;;;;6.57;4.13;;;;;;;;;;5069271;28;20118;-79
2024/03/19 04:22:50;;;;;;;6.68;3.78;;;;;;;;;;5071754;28;20016;-80
2024/03/19 04:25:36;;;;;;;5.70;3.53;;;;;;;;;;5069028;28;20039;-80
2024/03/19 04:28:21;;;;;;;15.68;4.38;;;;;;;;;;5073960;28;20482;-80
2024/03/19 04:31:06;;;;;;;5.68;3.50;;;;;;;;;;5065010;28;20054;-79
2024/03/19 04:33:51;;;;;;;8.05;4.20;;;;;;;;;;5083277;28;20025;-80
2024/03/19 04:36:37;;;;;;;7.45;3.95;;;;;;;;;;5071778;28;20211;-80
2024/03/19 04:39:22;;;;;;;10.10;3.95;;;;;;;;;;5047211;28;20032;-81
2024/03/19 04:42:13;;;;;;;6.60;3.80;;;;;;;;;;5065663;28;20051;-80
2024/03/19 04:44:58;;;;;;;6.38;3.75;;;;;;;;;;5067343;28;20466;-80
2024/03/19 04:47:43;;;;;;;9.70;3.67;;;;;;;;;;5066857;28;20024;-80
2024/03/19 04:50:30;;;;;;;4.95;3.13;;;;;;;;;;5064473;28;20083;-80
2024/03/19 04:53:15;;;;;;;8.60;3.22;;;;;;;;;;5071167;28;20028;-80
2024/03/19 04:56:00;;;;;;;7.95;4.05;;;;;;;;;;5060924;28;20131;-80
2024/03/19 04:58:46;;;;;;;6.93;3.70;;;;;;;;;;5065321;28;20031;-80
2024/03/19 05:01:32;;;;;;;7.07;3.95;;;;;;;;;;5081404;28;20042;-80
2024/03/19 05:04:18;;;;;;;5.25;3.85;;;;;;;;;;5065418;28;20031;-80
2024/03/19 05:07:04;;;;;;;6.10;3.30;;;;;;;;;;5065520;28;20105;-80
2024/03/19 05:09:49;;;;;;;5.05;3.55;;;;;;;;;;5058041;28;20016;-80
2024/03/19 05:12:34;;;;;;;7.57;3.38;;;;;;;;;;5077026;28;20019;-80
2024/03/19 05:15:19;;;;;;;8.45;3.75;;;;;;;;;;5078845;28;20048;-80
2024/03/19 05:18:05;;;;;;;5.68;3.28;;;;;;;;;;5076816;28;20506;-81
2024/03/19 05:20:50;;;;;;;6.78;3.78;;;;;;;;;;5069429;28;20023;-80
2024/03/19 05:23:35;;;;;;;8.27;3.22;;;;;;;;;;5063654;28;20175;-79
2024/03/19 05:26:20;;;;;;;8.25;3.80;;;;;;;;;;5057672;28;20077;-79
2024/03/19 05:29:06;;;;;;;7.30;3.92;;;;;;;;;;5068118;28;20050;-78
2024/03/19 05:31:51;;;;;;;7.07;3.75;;;;;;;;;;5071144;28;20020;-78
2024/03/19 05:34:36;;;;;;;6.40;4.03;;;;;;;;;;5074911;28;20111;-78
2024/03/19 05:37:21;;;;;;;8.85;3.92;;;;;;;;;;5068455;28;20062;-77
2024/03/19 05:40:07;;;;;;;6.68;3.80;;;;;;;;;;5069616;28;20466;-77
2024/03/19 05:42:52;;;;;;;5.55;3.22;;;;;;;;;;5070398;28;20048;-79
2024/03/19 05:45:37;;;;;;;7.43;3.70;;;;;;;;;;5084843;28;20074;-80
2024/03/19 05:48:23;;;;;;;5.82;3.40;;;;;;;;;;5096031;28;20043;-80
2024/03/19 05:51:07;;;;;;;6.72;3.70;;;;;;;;;;5093405;28;20062;-81
2024/03/19 05:53:51;;;;;;;6.22;3.67;;;;;;;;;;5111997;28;20038;-78
2024/03/19 05:56:37;;;;;;;6.20;4.00;;;;;;;;;;5110894;28;20005;-77
2024/03/19 05:59:23;;;;;;;5.72;3.42;;;;;;;;;;5086265;28;20052;-80
2024/03/19 06:02:09;;;;;;;12.98;3.45;;;;;;;;;;5070035;28;20051;-78
2024/03/19 06:04:54;;;;;;;7.85;4.10;;;;;;;;;;5064995;28;20030;-77
2024/03/19 06:07:39;;;;;;;8.07;4.80;;;;;;;;;;5060408;28;20135;-78
2024/03/19 06:10:25;;;;;;;6.57;3.47;;;;;;;;;;5065304;28;20150;-79
2024/03/19 06:13:10;;;;;;;9.15;3.88;;;;;;;;;;5057597;28;20127;-80
2024/03/19 06:15:55;;;;;;;8.30;4.07;;;;;;;;;;5045742;28;20041;-79
2024/03/19 06:18:41;;;;;;;6.93;4.15;;;;;;;;;;5040673;28;20029;-78
2024/03/19 06:21:26;;;;;;;8.68;4.47;;;;;;;;;;5043513;28;20339;-79
2024/03/19 06:24:11;;;;;;;6.22;3.90;;;;;;;;;;5044383;28;20139;-79
2024/03/19 06:26:57;;;;;;;12.95;5.35;;;;;;;;;;5042484;28;20024;-80
2024/03/19 06:29:42;;;;;;;7.55;3.70;;;;;;;;;;5058224;28;20029;-77
2024/03/19 06:32:27;;;;;;;7.82;4.15;;;;;;;;;;5046683;28;20300;-79
2024/03/19 06:35:14;;;;;;;7.72;3.90;;;;;;;;;;5045801;28;20408;-76
2024/03/19 06:38:02;;;;;;;6.90;4.43;;;;;;;;;;5045209;28;20071;-82
2024/03/19 06:40:48;;;;;;;9.98;4.32;;;;;;;;;;5049337;28;20064;-80
2024/03/19 06:43:33;;;;;;;10.20;4.85;;;;;;;;;;5047857;28;20020;-81
2024/03/19 06:46:18;;;;;;;9.43;4.10;;;;;;;;;;5047109;28;20048;-80
2024/03/19 06:49:04;;;;;;;8.55;4.45;;;;;;;;;;5036808;28;20028;-81
2024/03/19 06:51:50;;;;;;;6.40;4.35;;;;;;;;;;5036807;28;20029;-81
2024/03/19 06:54:35;;;;;;;11.48;5.28;;;;;;;;;;5038681;28;20059;-83
2024/03/19 06:57:20;;;;;;;8.45;4.30;;;;;;;;;;5050025;28;20021;-81
2024/03/19 07:00:13;;;;;;;9.57;4.75;;;;;;;;;;5060843;28;20032;-84
2024/03/19 07:02:58;;;;;;;8.18;4.53;;;;;;;;;;5025426;28;20025;-79
2024/03/19 07:05:45;;;;;;;10.90;4.70;;;;;;;;;;5038394;28;20474;-80
2024/03/19 07:08:31;;;;;;;6.93;4.43;;;;;;;;;;5041178;28;20035;-78
2024/03/19 07:11:17;;;;;;;7.18;4.45;;;;;;;;;;5043772;28;20099;-85
2024/03/19 07:14:04;;;;;;;8.18;4.15;;;;;;;;;;5055767;28;20044;-83
2024/03/19 07:16:50;;;;;;;8.05;4.35;;;;;;;;;;5072053;28;20383;-83
2024/03/19 07:19:35;;;;;;;8.07;4.60;;;;;;;;;;5064546;28;20043;-84
2024/03/19 07:22:21;;;;;;;6.05;4.05;;;;;;;;;;5075621;28;20036;-85
2024/03/19 07:25:07;;;;;;;7.25;4.32;;;;;;;;;;5073606;28;20031;-83
2024/03/19 07:27:52;;;;;;;8.65;4.70;;;;;;;;;;5071434;28;20024;-84
2024/03/19 07:30:37;;;;;;;6.88;4.72;;;;;;;;;;5069570;28;20124;-84
2024/03/19 07:33:23;;;;;;;8.13;4.38;;;;;;;;;;5082919;28;20151;-82
2024/03/19 07:36:10;;;;;;;6.55;4.03;;;;;;;;;;5073184;28;20121;-83
2024/03/19 07:38:55;;;;;;;6.03;4.13;;;;;;;;;;5079193;28;20087;-82
2024/03/19 07:41:40;;;;;;;8.00;4.15;;;;;;;;;;5068666;28;20020;-85
2024/03/19 07:44:25;;;;;;;6.18;4.20;;;;;;;;;;5086913;28;20190;-84
2024/03/19 07:47:10;;;;;;;6.18;4.00;;;;;;;;;;5078052;28;20020;-84
2024/03/19 07:49:56;;;;;;;8.25;4.82;;;;;;;;;;5071341;28;20047;-83
2024/03/19 07:52:41;;;;;;;8.25;4.30;;;;;;;;;;5073230;28;20031;-83
2024/03/19 07:55:26;;;;;;;9.93;6.00;;;;;;;;;;5074720;28;20363;-83
2024/03/19 07:58:12;;;;;;;12.25;5.72;;;;;;;;;;5074847;28;20107;-83
2024/03/19 08:00:57;;;;;;;9.77;5.75;;;;;;;;;;5075314;28;20457;-83
2024/03/19 08:03:42;;;;;;;9.10;5.15;;;;;;;;;;5087653;28;20067;-83
2024/03/19 08:06:29;;;;;;;6.25;4.63;;;;;;;;;;5084894;28;20028;-83
2024/03/19 08:09:15;;;;;;;5.45;3.70;;;;;;;;;;5076229;28;20102;-82
2024/03/19 08:12:05;;;;;;;6.75;4.82;;;;;;;;;;5067779;28;20111;-83
2024/03/19 08:14:51;;;;;;;6.07;3.88;;;;;;;;;;5042078;28;20183;-82
2024/03/19 08:17:37;;;;;;;8.38;4.07;;;;;;;;;;5043618;28;20036;-84
2024/03/19 08:20:23;;;;;;;6.15;3.83;;;;;;;;;;5044467;28;20113;-84
2024/03/19 08:23:09;;;;;;;6.15;4.28;;;;;;;;;;5044854;28;20596;-82
2024/03/19 08:25:54;;;;;;;7.53;3.78;;;;;;;;;;5038634;28;20091;-84
2024/03/19 08:28:40;;;;;;;5.13;3.55;;;;;;;;;;5058047;28;20368;-85
2024/03/19 08:31:26;;;;;;;7.13;3.33;;;;;;;;;;5041305;28;20036;-83
2024/03/19 08:34:13;;;;;;;5.47;3.60;;;;;;;;;;5056750;28;20078;-83
2024/03/19 08:36:58;;;;;;;5.82;3.88;;;;;;;;;;5052674;28;20029;-83
2024/03/19 08:39:43;;;;;;;6.53;3.92;;;;;;;;;;5044189;28;20036;-84
2024/03/19 08:42:29;;;;;;;6.30;3.47;;;;;;;;;;5041485;28;20056;-84
2024/03/19 08:45:14;;;;;;;5.68;3.20;;;;;;;;;;5041640;28;20036;-84
2024/03/19 08:47:59;;;;;;;6.72;3.85;;;;;;;;;;5059203;28;20020;-85
2024/03/19 08:50:44;;;;;;;5.20;3.13;;;;;;;;;;5042111;28;20035;-84
2024/03/19 08:53:30;;;;;;;7.22;3.47;;;;;;;;;;5042754;28;20147;-85
2024/03/19 08:56:15;;;;;;;6.30;3.40;;;;;;;;;;5039092;28;20055;-86
2024/03/19 08:59:00;;;;;;;6.68;3.45;;;;;;;;;;5040043;28;20032;-79
2024/03/19 09:01:46;;;;;;;5.40;3.10;;;;;;;;;;5041188;28;20036;-81
2024/03/19 09:04:33;;;;;;;10.45;3.35;;;;;;;;;;5042290;28;20103;-81
2024/03/19 09:07:18;;;;;;;3.97;2.53;;;;;;;;;;5042491;28;20032;-81
2024/03/19 09:10:03;;;;;;;4.28;2.90;;;;;;;;;;5045957;28;20117;-82
2024/03/19 09:12:49;;;;;;;4.03;2.35;;;;;;;;;;5032291;28;20032;-82
2024/03/19 09:15:34;;;;;;;4.72;2.88;;;;;;;;;;5078016;28;20028;-82
2024/03/19 09:18:19;;;;;;;5.15;2.50;;;;;;;;;;5076610;28;20023;-81
2024/03/19 09:21:04;;;;;;;5.70;2.58;;;;;;;;;;5069618;28;20072;-80
2024/03/19 09:23:50;;;;;;;7.18;2.83;;;;;;;;;;5069632;28;20020;-80
2024/03/19 09:26:35;;;;;;;4.43;2.97;;;;;;;;;;5073059;28;20031;-79
2024/03/19 09:29:20;;;;;;;6.68;3.83;;;;;;;;;;5080070;28;20509;-81
2024/03/19 09:32:06;;;;;;;4.78;3.20;;;;;;;;;;5072440;28;20058;-84
2024/03/19 09:34:51;;;;;;;5.38;3.80;;;;;;;;;;5090039;28;20085;-74
2024/03/19 09:37:36;;;;;;;7.05;4.07;;;;;;;;;;5069713;28;20040;-79
2024/03/19 09:40:22;;;;;;;7.25;4.13;;;;;;;;;;5083127;28;20107;-80
2024/03/19 09:43:08;;;;;;;6.45;3.72;;;;;;;;;;5072377;28;20020;-78
2024/03/19 09:45:53;;;;;;;6.43;4.38;;;;;;;;;;5077477;28;20372;-82
2024/03/19 09:48:39;;;;;;;9.02;4.57;;;;;;;;;;5073676;28;20026;-82
2024/03/19 09:51:26;;;;;;;7.45;4.88;;;;;;;;;;5091615;28;20479;-83
2024/03/19 09:54:12;;;;;;;8.13;4.30;;;;;;;;;;5072388;28;20028;-83
2024/03/19 09:56:58;;;;;;;8.35;4.43;;;;;;;;;;5074057;28;20028;-83
2024/03/19 09:59:46;;;;;;;9.25;4.75;;;;;;;;;;5079189;28;20028;-83
2024/03/19 10:02:32;;;;;;;5.60;3.90;;;;;;;;;;5078111;28;20072;-83
2024/03/19 10:05:17;;;;;;;7.97;4.63;;;;;;;;;;5083452;28;20573;-83
2024/03/19 10:08:04;;;;;;;7.80;4.95;;;;;;;;;;5075668;28;20028;-83
2024/03/19 10:10:49;;;;;;;8.82;4.60;;;;;;;;;;5097078;28;20036;-83
2024/03/19 10:13:35;;;;;;;8.13;4.47;;;;;;;;;;5067892;28;20147;-84
2024/03/19 10:16:20;;;;;;;6.28;3.65;;;;;;;;;;5045435;28;20036;-83
2024/03/19 10:19:05;;;;;;;8.50;4.35;;;;;;;;;;5053482;28;21014;-83
2024/03/19 10:21:50;;;;;;;7.20;4.43;;;;;;;;;;5047535;28;20033;-83
2024/03/19 10:24:36;;;;;;;10.50;4.68;;;;;;;;;;5048834;28;20055;-83
2024/03/19 10:27:21;;;;;;;7.00;4.57;;;;;;;;;;5055143;28;20487;-83
2024/03/19 10:30:08;;;;;;;5.97;4.07;;;;;;;;;;5049739;28;20187;-85
2024/03/19 10:32:53;;;;;;;4.43;3.20;;;;;;;;;;5043486;28;20098;-83
2024/03/19 10:35:40;;;;;;;8.85;4.80;;;;;;;;;;5047233;28;20036;-85
2024/03/19 10:38:26;;;;;;;16.67;5.18;;;;;;;;;;5054125;28;20028;-84
2024/03/19 10:41:11;;;;;;;5.72;4.20;;;;;;;;;;5055074;28;20032;-83
2024/03/19 10:44:00;;;;;;;5.82;4.20;;;;;;;;;;5039522;28;20025;-85
2024/03/19 10:46:46;;;;;;;5.88;3.65;;;;;;;;;;5038943;28;20028;-83
2024/03/19 10:49:32;;;;;;;7.40;3.80;;;;;;;;;;5051890;28;20036;-84
2024/03/19 10:52:20;;;;;;;4.95;3.70;;;;;;;;;;5048479;28;20040;-82
2024/03/19 10:55:11;;;;;;;5.65;4.35;;;;;;;;;;5065961;28;20028;-83
2024/03/19 10:58:00;;;;;;;11.43;3.88;;;;;;;;;;5057717;28;20467;-84
2024/03/19 11:00:46;;;;;;;6.13;3.00;;;;;;;;;;5048590;28;20054;-83
2024/03/19 11:03:31;;;;;;;5.05;2.80;;;;;;;;;;5043774;28;20383;-84
2024/03/19 11:06:21;;;;;;;9.10;3.17;;;;;;;;;;5049869;28;20028;-79
2024/03/19 11:09:20;;;;;;;6.53;3.28;;;;;;;;;;5037803;28;20051;-81
2024/03/19 11:12:05;;;;;;;3.25;2.70;;;;;;;;;;5046504;28;20029;-79
2024/03/19 11:14:57;;;;;;;6.50;2.42;;;;;;;;;;5066302;28;20119;-80
2024/03/19 11:17:42;;;;;;;7.80;3.38;;;;;;;;;;5066995;28;20031;-80
2024/03/19 11:20:29;;;;;;;4.75;2.55;;;;;;;;;;5062114;28;20069;-80
2024/03/19 11:23:16;;;;;;;7.80;2.97;;;;;;;;;;5063449;28;20020;-83
2024/03/19 11:26:01;;;;;;;11.40;3.30;;;;;;;;;;5063095;28;20029;-80
2024/03/19 11:29:00;;;;;;;3.72;2.28;;;;;;;;;;5061412;28;20383;-87
2024/03/19 11:31:47;;;;;;;4.28;2.35;;;;;;;;;;5063142;28;20089;-81
2024/03/19 11:34:33;;;;;;;4.43;2.35;;;;;;;;;;5068590;28;20024;-85
2024/03/19 11:37:18;;;;;;;12.32;2.78;;;;;;;;;;5063940;28;20085;-81
2024/03/19 11:40:12;;;;;;;7.30;3.58;;;;;;;;;;5066890;28;20097;-80
2024/03/19 11:42:58;;;;;;;5.18;2.58;;;;;;;;;;5063664;28;20024;-80
2024/03/19 11:45:44;;;;;;;4.10;2.15;;;;;;;;;;5055485;28;20051;-82
2024/03/19 11:48:30;;;;;;;4.63;2.33;;;;;;;;;;5068272;28;20047;-78
2024/03/19 11:51:15;;;;;;;5.28;2.75;;;;;;;;;;5066904;28;20051;-78
2024/03/19 11:54:01;;;;;;;4.55;2.65;;;;;;;;;;5065023;28;20052;-77
2024/03/19 11:56:47;;;;;;;4.82;2.53;;;;;;;;;;5065380;28;20085;-78
2024/03/19 11:59:32;;;;;;;6.43;3.35;;;;;;;;;;5065536;28;20297;-81
2024/03/19 12:02:18;;;;;;;3.05;2.20;;;;;;;;;;5065168;28;20043;-82
2024/03/19 12:05:03;;;;;;;3.78;2.10;;;;;;;;;;5068920;28;20020;-81
2024/03/19 12:07:48;;;;;;;5.00;2.90;;;;;;;;;;5064962;28;20039;-84
2024/03/19 12:10:34;;;;;;;2.95;1.98;;;;;;;;;;5052984;28;20016;-88
2024/03/19 12:13:19;;;;;;;4.72;2.70;;;;;;;;;;5060481;28;20044;-89
2024/03/19 12:16:04;;;;;;;2.95;2.47;;;;;;;;;;5084412;28;20020;-89
2024/03/19 12:18:49;;;;;;;4.38;2.40;;;;;;;;;;5067861;28;20027;-89
2024/03/19 12:21:41;;;;;;;2.90;2.20;;;;;;;;;;5074082;28;20402;-83
2024/03/19 12:24:27;;;;;;;5.05;2.63;;;;;;;;;;5067389;28;20363;-82
2024/03/19 12:27:13;;;;;;;5.00;2.40;;;;;;;;;;5066566;28;20518;-84
2024/03/19 12:29:58;;;;;;;4.40;2.35;;;;;;;;;;5078031;28;20430;-83
2024/03/19 12:32:47;;;;;;;4.78;2.45;;;;;;;;;;5072183;28;20032;-83
2024/03/19 12:35:33;;;;;;;16.98;3.45;;;;;;;;;;5077869;28;20024;-88
2024/03/19 12:38:18;;;;;;;5.75;2.80;;;;;;;;;;5078298;28;21013;-85
2024/03/19 12:41:03;;;;;;;6.95;2.80;;;;;;;;;;5072498;28;20059;-86
2024/03/19 12:43:49;;;;;;;5.75;2.53;;;;;;;;;;5083072;28;20093;-83
2024/03/19 12:46:36;;;;;;;5.35;2.67;;;;;;;;;;5068026;28;20120;-85
2024/03/19 12:49:24;;;;;;;4.60;2.88;;;;;;;;;;5073369;28;20062;-85
2024/03/19 12:52:10;;;;;;;5.47;2.40;;;;;;;;;;5066685;28;20031;-85
2024/03/19 12:54:56;;;;;;;4.50;2.35;;;;;;;;;;5078481;28;20066;-83
2024/03/19 12:57:41;;;;;;;4.28;2.38;;;;;;;;;;5076507;28;20036;-81
2024/03/19 13:00:26;;;;;;;8.00;2.65;;;;;;;;;;5066071;28;20683;-86
2024/03/19 13:03:11;;;;;;;4.78;2.60;;;;;;;;;;5064274;28;20099;-81
2024/03/19 13:05:57;;;;;;;4.00;2.45;;;;;;;;;;5076151;28;20035;-82
2024/03/19 13:08:42;;;;;;;4.47;2.50;;;;;;;;;;5074638;28;20146;-90
2024/03/19 13:11:27;;;;;;;3.67;2.20;;;;;;;;;;5069899;28;20024;-80
2024/03/19 13:14:13;;;;;;;3.17;1.98;;;;;;;;;;5067612;28;20040;-81
2024/03/19 13:16:58;;;;;;;2.75;2.05;;;;;;;;;;5068769;28;20752;-81
2024/03/19 13:19:43;;;;;;;5.10;2.42;;;;;;;;;;5061034;28;20032;-81
2024/03/19 13:22:28;;;;;;;6.75;2.58;;;;;;;;;;5078087;28;20063;-81
2024/03/19 13:25:14;;;;;;;6.18;3.00;;;;;;;;;;5062222;28;20050;-81
2024/03/19 13:28:00;;;;;;;4.72;2.85;;;;;;;;;;5064112;28;20083;-81
2024/03/19 13:30:47;;;;;;;5.03;2.58;;;;;;;;;;5074829;28;20032;-83
2024/03/19 13:33:32;;;;;;;4.97;2.38;;;;;;;;;;5072087;28;20206;-74
2024/03/19 13:36:17;;;;;;;5.88;2.70;;;;;;;;;;5089252;28;20059;-75
2024/03/19 13:39:04;;;;;;;4.57;2.83;;;;;;;;;;5060465;28;20044;-75
2024/03/19 13:41:50;;;;;;;4.07;2.35;;;;;;;;;;5056675;28;20032;-75
2024/03/19 13:44:35;;;;;;;6.65;2.80;;;;;;;;;;5069814;28;20681;-78
2024/03/19 13:47:20;;;;;;;1.95;1.70;;;;;;;;;;5070440;28;20547;-72
2024/03/19 13:50:21;;;;;;;4.72;2.17;;;;;;;;;;5071792;28;20012;-74
2024/03/19 13:53:07;;;;;;;5.63;2.45;;;;;;;;;;5074700;28;20016;-74
2024/03/19 13:55:53;;;;;;;3.28;1.95;;;;;;;;;;5073172;28;20465;-74
2024/03/19 13:58:38;;;;;;;5.68;2.30;;;;;;;;;;5046270;28;20048;-73
2024/03/19 14:01:22;;;;;;;6.70;2.30;;;;;;;;;;5038083;28;20087;-73
2024/03/19 14:04:08;;;;;;;3.55;2.15;;;;;;;;;;5063396;28;20025;-74
2024/03/19 14:06:53;;;;;;;2.90;1.75;;;;;;;;;;5079869;28;20063;-81
2024/03/19 14:09:39;;;;;;;3.58;2.47;;;;;;;;;;5077026;28;20028;-81
2024/03/19 14:12:24;;;;;;;3.92;2.00;;;;;;;;;;5083586;28;20031;-81
2024/03/19 14:15:09;;;;;;;3.05;2.05;;;;;;;;;;5071683;28;20094;-80
2024/03/19 14:17:55;;;;;;;5.43;2.47;;;;;;;;;;5058790;28;20070;-80
2024/03/19 14:20:40;;;;;;;3.83;2.03;;;;;;;;;;5060509;28;20112;-80
2024/03/19 14:23:26;;;;;;;5.82;2.30;;;;;;;;;;5055069;28;20029;-79
2024/03/19 14:26:11;;;;;;;5.93;2.33;;;;;;;;;;5055820;28;20394;-79
2024/03/19 14:28:57;;;;;;;4.82;2.25;;;;;;;;;;5059241;28;20108;-81
2024/03/19 14:31:42;;;;;;;6.35;2.70;;;;;;;;;;5066198;28;20467;-82
2024/03/19 14:34:27;;;;;;;2.95;2.00;;;;;;;;;;5049603;28;20116;-83
2024/03/19 14:37:12;;;;;;;3.92;1.85;;;;;;;;;;5056265;28;20031;-84
2024/03/19 14:39:58;;;;;;;2.83;2.08;;;;;;;;;;5069867;28;21293;-82
2024/03/19 14:42:43;;;;;;;3.20;2.47;;;;;;;;;;5057453;28;20044;-80
2024/03/19 14:45:29;;;;;;;6.25;2.20;;;;;;;;;;5061889;28;20031;-82
2024/03/19 14:48:14;;;;;;;3.53;2.40;;;;;;;;;;5051492;28;20227;-74
2024/03/19 14:50:59;;;;;;;3.33;2.20;;;;;;;;;;5065548;28;21184;-75
2024/03/19 14:53:45;;;;;;;7.35;2.05;;;;;;;;;;5057915;28;20077;-76
2024/03/19 14:56:33;;;;;;;4.43;2.00;;;;;;;;;;5070852;28;20029;-76
2024/03/19 14:59:22;;;;;;;4.20;1.90;;;;;;;;;;5067354;28;20024;-76
2024/03/19 15:02:08;;;;;;;4.05;2.15;;;;;;;;;;5053197;28;20382;-76
2024/03/19 15:04:53;;;;;;;5.10;2.10;;;;;;;;;;5050007;28;20024;-75
2024/03/19 15:07:38;;;;;;;2.42;1.80;;;;;;;;;;5061234;28;20040;-76
2024/03/19 15:10:23;;;;;;;4.68;2.35;;;;;;;;;;5053512;28;20032;-74
2024/03/19 15:13:10;;;;;;;3.22;1.95;;;;;;;;;;5051323;28;20127;-74
2024/03/19 15:15:55;;;;;;;2.75;1.98;;;;;;;;;;5085565;28;20531;-75
2024/03/19 15:18:41;;;;;;;5.03;1.80;;;;;;;;;;5068455;28;20024;-75
2024/03/19 15:21:26;;;;;;;2.50;1.75;;;;;;;;;;5068365;28;20606;-74
2024/03/19 15:24:13;;;;;;;4.00;2.20;;;;;;;;;;5071520;28;20028;-76
2024/03/19 15:26:58;;;;;;;3.35;2.03;;;;;;;;;;5070697;28;20028;-75
2024/03/19 15:29:47;;;;;;;3.35;1.80;;;;;;;;;;5091012;28;20081;-75
2024/03/19 15:32:33;;;;;;;5.07;2.38;;;;;;;;;;5063650;28;20038;-74
2024/03/19 15:35:18;;;;;;;2.80;1.77;;;;;;;;;;5070417;28;20024;-75
2024/03/19 15:38:05;;;;;;;3.13;1.75;;;;;;;;;;5071729;28;20139;-75
2024/03/19 15:40:51;;;;;;;4.18;1.90;;;;;;;;;;5068112;28;20079;-75
2024/03/19 15:43:36;;;;;;;3.53;1.80;;;;;;;;;;5065445;28;20467;-79
2024/03/19 15:46:21;;;;;;;3.35;2.40;;;;;;;;;;5087137;28;20122;-82
2024/03/19 15:49:07;;;;;;;2.92;1.75;;;;;;;;;;5067141;28;20028;-81
2024/03/19 15:51:52;;;;;;;3.75;2.30;;;;;;;;;;5070642;28;20111;-80
2024/03/19 15:54:39;;;;;;;3.90;2.10;;;;;;;;;;5065886;28;20104;-79
2024/03/19 15:57:24;;;;;;;3.83;2.17;;;;;;;;;;5078271;28;20057;-80
2024/03/19 16:00:10;;;;;;;5.20;2.10;;;;;;;;;;5070799;28;20030;-80
2024/03/19 16:02:56;;;;;;;3.78;1.90;;;;;;;;;;5067846;28;20024;-80
2024/03/19 16:05:42;;;;;;;4.20;2.42;;;;;;;;;;5064000;28;20031;-79
2024/03/19 16:08:27;;;;;;;3.20;1.75;;;;;;;;;;5082597;28;20024;-79
2024/03/19 16:11:15;;;;;;;2.97;2.00;;;;;;;;;;5063859;28;20032;-79
2024/03/19 16:14:00;;;;;;;3.35;1.92;;;;;;;;;;5061149;28;20123;-80
2024/03/19 16:16:45;;;;;;;4.30;1.95;;;;;;;;;;5073003;28;20445;-79
2024/03/19 16:19:30;;;;;;;4.68;2.33;;;;;;;;;;5076606;28;20110;-79
2024/03/19 16:22:15;;;;;;;2.67;1.73;;;;;;;;;;5070993;28;20032;-79
2024/03/19 16:25:01;;;;;;;3.67;2.28;;;;;;;;;;5064356;28;20078;-79
2024/03/19 16:27:46;;;;;;;4.47;2.00;;;;;;;;;;5071805;28;20042;-79
2024/03/19 16:30:32;;;;;;;5.20;1.85;;;;;;;;;;5072989;28;20119;-79